Time;durP1;ratioP1;P1;durP2;ratioP2;P2;SDS_P1;SDS_P2;PMS_P1;PMS_P2;Temp;Humidity;BMP_temperature;BMP_pressure;BME280_temperature;BME280_humidity;BME280_pressure;Samples;Min_cycle;Max_cycle;Signal;HPM_P1;HPM_P2
2022/11/23 00:01:59;;;;;;;9.10;4.75;;;8.40;86.20;;;;;;5069720;28;20052;-68
2022/11/23 00:04:26;;;;;;;7.43;4.27;;;8.40;86.20;;;;;;5050440;28;20049;-68
2022/11/23 00:06:53;;;;;;;9.40;4.95;;;8.40;86.20;;;;;;5064841;28;20260;-68
2022/11/23 00:09:21;;;;;;;9.98;5.15;;;8.40;86.20;;;;;;5061361;28;20490;-68
2022/11/23 00:11:48;;;;;;;9.23;4.93;;;8.40;86.30;;;;;;5052459;28;20140;-68
2022/11/23 00:14:15;;;;;;;9.52;4.70;;;8.40;86.30;;;;;;5070949;28;20112;-68
2022/11/23 00:16:43;;;;;;;9.07;4.93;;;8.40;86.20;;;;;;5070808;28;20048;-68
2022/11/23 00:19:10;;;;;;;8.63;4.38;;;8.40;86.20;;;;;;5070789;28;20961;-68
2022/11/23 00:21:37;;;;;;;9.85;4.75;;;8.40;86.20;;;;;;5063846;28;20054;-68
2022/11/23 00:24:05;;;;;;;11.75;4.75;;;8.50;86.30;;;;;;5051009;28;20052;-68
2022/11/23 00:26:33;;;;;;;11.02;4.55;;;8.50;86.40;;;;;;5059313;28;20128;-68
2022/11/23 00:29:00;;;;;;;8.93;5.00;;;8.50;86.40;;;;;;5070486;28;20049;-68
2022/11/23 00:31:27;;;;;;;11.07;5.00;;;8.40;86.30;;;;;;5070199;28;20248;-68
2022/11/23 00:33:57;;;;;;;10.18;4.00;;;8.50;86.30;;;;;;5053828;28;20045;-68
2022/11/23 00:36:26;;;;;;;9.10;4.35;;;8.50;86.30;;;;;;5071719;28;20541;-68
2022/11/23 00:38:54;;;;;;;9.95;4.78;;;8.50;86.30;;;;;;5046341;28;20094;-68
2022/11/23 00:41:23;;;;;;;10.23;5.00;;;8.50;86.50;;;;;;5037294;28;20053;-68
2022/11/23 00:43:50;;;;;;;7.32;4.53;;;8.50;86.50;;;;;;5053191;28;20276;-68
2022/11/23 00:46:18;;;;;;;9.80;4.82;;;8.50;86.50;;;;;;5060914;28;20752;-68
2022/11/23 00:48:47;;;;;;;9.20;4.68;;;8.50;86.50;;;;;;5072007;28;20076;-68
2022/11/23 00:51:18;;;;;;;10.20;4.90;;;8.50;86.70;;;;;;5069965;28;20069;-68
2022/11/23 00:53:45;;;;;;;10.27;4.80;;;8.50;86.70;;;;;;5053675;28;20140;-68
2022/11/23 00:56:13;;;;;;;9.85;4.38;;;8.50;86.70;;;;;;5051521;28;20276;-68
2022/11/23 00:58:41;;;;;;;9.40;4.88;;;8.50;86.70;;;;;;5053280;28;20136;-68
2022/11/23 01:01:10;;;;;;;9.40;4.72;;;8.50;86.60;;;;;;5044146;28;20065;-68
2022/11/23 01:03:39;;;;;;;9.63;4.90;;;8.50;86.60;;;;;;5049689;28;20052;-68
2022/11/23 01:06:08;;;;;;;8.97;4.50;;;8.50;86.70;;;;;;5050954;28;20041;-68
2022/11/23 01:08:37;;;;;;;10.38;5.63;;;8.50;86.80;;;;;;5070299;28;21390;-68
2022/11/23 01:11:06;;;;;;;9.32;4.43;;;8.50;86.90;;;;;;5045576;28;20128;-68
2022/11/23 01:13:35;;;;;;;8.70;4.15;;;8.50;86.90;;;;;;5032816;28;20859;-68
2022/11/23 01:16:03;;;;;;;8.45;5.07;;;8.50;86.80;;;;;;5058189;28;20063;-68
2022/11/23 01:18:30;;;;;;;10.30;4.93;;;8.50;86.80;;;;;;5070167;28;20053;-68
2022/11/23 01:20:57;;;;;;;11.25;5.05;;;8.50;86.80;;;;;;5069450;28;20245;-68
2022/11/23 01:23:24;;;;;;;11.55;4.90;;;8.50;86.80;;;;;;5069518;28;20495;-68
2022/11/23 01:25:53;;;;;;;8.55;4.28;;;8.50;86.90;;;;;;5069496;28;20045;-68
2022/11/23 01:28:21;;;;;;;8.10;4.65;;;8.60;86.90;;;;;;5052835;28;20049;-68
2022/11/23 01:30:48;;;;;;;14.37;5.30;;;8.60;86.90;;;;;;5054718;28;20107;-68
2022/11/23 01:33:15;;;;;;;9.23;4.40;;;8.50;87.00;;;;;;5032954;28;20288;-68
2022/11/23 01:35:42;;;;;;;9.70;5.15;;;8.50;87.00;;;;;;5033395;28;20142;-68
2022/11/23 01:38:09;;;;;;;9.80;4.50;;;8.60;86.90;;;;;;5050883;28;20539;-68
2022/11/23 01:40:40;;;;;;;7.15;3.83;;;8.60;87.10;;;;;;5064284;28;20096;-68
2022/11/23 01:43:15;;;;;;;11.17;4.90;;;8.50;87.00;;;;;;5069602;28;20178;-68
2022/11/23 01:45:44;;;;;;;9.13;4.72;;;8.60;87.10;;;;;;5057209;28;20260;-68
2022/11/23 01:48:18;;;;;;;10.52;4.90;;;8.60;87.20;;;;;;5050661;28;20061;-68
2022/11/23 01:50:49;;;;;;;10.27;4.53;;;8.60;87.10;;;;;;5063422;28;20053;-68
2022/11/23 01:53:16;;;;;;;7.75;4.28;;;8.60;87.10;;;;;;5069298;28;20136;-68
2022/11/23 01:55:45;;;;;;;7.47;4.80;;;8.60;87.20;;;;;;5069190;28;20145;-68
2022/11/23 01:58:17;;;;;;;8.45;3.92;;;8.60;87.10;;;;;;5070763;28;20357;-68
2022/11/23 02:00:44;;;;;;;9.50;4.80;;;8.60;87.10;;;;;;5068516;28;20068;-68
2022/11/23 02:03:12;;;;;;;7.50;4.28;;;8.60;87.20;;;;;;5070821;28;20049;-68
2022/11/23 02:05:44;;;;;;;10.00;4.88;;;8.60;87.10;;;;;;5050668;28;20152;-68
2022/11/23 02:08:17;;;;;;;9.80;4.93;;;8.60;87.20;;;;;;5049381;28;20049;-68
2022/11/23 02:10:45;;;;;;;8.38;4.72;;;8.60;87.10;;;;;;5069088;28;20347;-68
2022/11/23 02:13:14;;;;;;;12.18;4.82;;;8.60;87.10;;;;;;5068775;28;20053;-68
2022/11/23 02:15:42;;;;;;;9.70;4.97;;;8.60;87.20;;;;;;5068154;28;20238;-68
2022/11/23 02:18:15;;;;;;;8.77;4.43;;;8.60;87.30;;;;;;5070199;28;20183;-68
2022/11/23 02:20:43;;;;;;;9.87;5.03;;;8.60;87.30;;;;;;5032613;28;20053;-68
2022/11/23 02:23:21;;;;;;;10.30;4.88;;;8.60;87.50;;;;;;5032163;28;20273;-68
2022/11/23 02:26:00;;;;;;;8.27;4.28;;;8.60;87.50;;;;;;5051935;28;20057;-68
2022/11/23 02:28:32;;;;;;;9.43;4.90;;;8.60;87.50;;;;;;5070306;28;20131;-69
2022/11/23 02:31:00;;;;;;;8.88;4.70;;;8.60;87.50;;;;;;5065666;28;20045;-68
2022/11/23 02:33:27;;;;;;;10.27;4.70;;;8.60;87.50;;;;;;5048777;28;20045;-68
2022/11/23 02:35:56;;;;;;;12.63;4.78;;;8.60;87.60;;;;;;5047519;28;20248;-68
2022/11/23 02:38:28;;;;;;;11.07;5.57;;;8.60;87.60;;;;;;5067127;28;20049;-68
2022/11/23 02:40:58;;;;;;;10.57;5.28;;;8.60;87.80;;;;;;5051637;28;20132;-68
2022/11/23 02:43:25;;;;;;;10.00;4.90;;;8.60;87.80;;;;;;5051734;28;20056;-68
2022/11/23 02:45:57;;;;;;;10.93;5.90;;;8.60;87.80;;;;;;5068681;28;20056;-68
2022/11/23 02:48:25;;;;;;;11.68;6.32;;;8.60;87.90;;;;;;5051677;28;20253;-68
2022/11/23 02:50:52;;;;;;;9.20;5.30;;;8.60;87.90;;;;;;5051588;28;20406;-68
2022/11/23 02:53:19;;;;;;;11.38;5.60;;;8.70;88.00;;;;;;5060646;28;20053;-68
2022/11/23 02:55:46;;;;;;;12.52;6.65;;;8.60;87.90;;;;;;5031228;28;20523;-68
2022/11/23 02:58:15;;;;;;;14.20;6.80;;;8.70;88.20;;;;;;5039238;28;20160;-68
2022/11/23 03:00:42;;;;;;;11.40;5.60;;;8.70;88.20;;;;;;5051339;28;20328;-68
2022/11/23 03:03:09;;;;;;;13.10;5.90;;;8.70;88.10;;;;;;5051533;28;20195;-68
2022/11/23 03:05:36;;;;;;;14.95;6.00;;;8.70;88.10;;;;;;5051461;28;20052;-68
2022/11/23 03:08:06;;;;;;;12.35;5.50;;;8.70;88.20;;;;;;5052011;28;20060;-68
2022/11/23 03:10:34;;;;;;;13.47;5.90;;;8.70;88.20;;;;;;5067906;28;20052;-68
2022/11/23 03:13:01;;;;;;;13.15;6.53;;;8.80;88.10;;;;;;5037200;28;20265;-68
2022/11/23 03:15:33;;;;;;;13.68;6.85;;;8.70;88.00;;;;;;5048280;28;20111;-68
2022/11/23 03:18:03;;;;;;;12.57;6.75;;;8.70;88.00;;;;;;5062277;28;20146;-68
2022/11/23 03:20:31;;;;;;;15.13;6.80;;;8.70;88.10;;;;;;5051320;28;20057;-68
2022/11/23 03:22:59;;;;;;;14.97;6.80;;;8.80;88.10;;;;;;5067519;28;20091;-68
2022/11/23 03:25:26;;;;;;;14.45;6.63;;;8.80;88.10;;;;;;5051460;28;20677;-68
2022/11/23 03:27:56;;;;;;;16.17;7.70;;;8.80;88.20;;;;;;5040979;28;20057;-68
2022/11/23 03:30:23;;;;;;;14.55;6.80;;;8.70;88.20;;;;;;5050694;28;20053;-68
2022/11/23 03:32:52;;;;;;;16.20;7.50;;;8.80;88.20;;;;;;5062454;28;20060;-68
2022/11/23 03:35:20;;;;;;;14.33;6.77;;;8.80;88.30;;;;;;5054279;28;20048;-68
2022/11/23 03:38:07;;;;;;;17.02;8.07;;;8.80;88.20;;;;;;5055132;28;20264;-68
2022/11/23 03:40:35;;;;;;;17.67;7.47;;;8.80;88.20;;;;;;5054096;28;20041;-68
2022/11/23 03:43:23;;;;;;;14.95;7.90;;;8.80;88.20;;;;;;5052716;28;20535;-68
2022/11/23 03:45:51;;;;;;;17.95;8.38;;;8.80;88.20;;;;;;5047639;28;20107;-68
2022/11/23 03:48:20;;;;;;;18.00;8.07;;;8.80;88.30;;;;;;5049948;28;20053;-68
2022/11/23 03:50:48;;;;;;;16.88;8.73;;;8.80;88.30;;;;;;5036023;28;20671;-68
2022/11/23 03:53:16;;;;;;;18.85;9.00;;;8.80;88.30;;;;;;5069358;28;20057;-68
2022/11/23 03:55:46;;;;;;;18.63;8.75;;;8.80;88.40;;;;;;5052363;28;20053;-68
2022/11/23 03:58:14;;;;;;;19.05;8.80;;;8.80;88.40;;;;;;5054309;28;20429;-68
2022/11/23 04:00:42;;;;;;;18.10;9.00;;;8.80;88.40;;;;;;5069226;28;20049;-68
2022/11/23 04:03:12;;;;;;;16.20;8.15;;;8.80;88.50;;;;;;5050411;28;20280;-68
2022/11/23 04:05:59;;;;;;;20.02;9.32;;;8.80;88.40;;;;;;5054710;28;20147;-68
2022/11/23 04:08:45;;;;;;;20.23;8.77;;;8.80;88.40;;;;;;5071344;28;20056;-68
2022/11/23 04:11:19;;;;;;;18.48;9.60;;;8.80;88.40;;;;;;5053713;28;20045;-68
2022/11/23 04:13:49;;;;;;;16.47;7.90;;;8.80;88.40;;;;;;5071143;28;20059;-68
2022/11/23 04:16:18;;;;;;;17.70;8.02;;;8.80;88.40;;;;;;5048186;28;20326;-68
2022/11/23 04:18:46;;;;;;;15.57;7.70;;;8.80;88.50;;;;;;5034353;28;20061;-68
2022/11/23 04:21:14;;;;;;;20.75;9.40;;;8.80;88.50;;;;;;5033240;28;20049;-68
2022/11/23 04:23:41;;;;;;;18.50;9.65;;;8.80;88.50;;;;;;5050581;28;20406;-68
2022/11/23 04:26:11;;;;;;;18.87;8.87;;;8.80;88.50;;;;;;5065563;28;20053;-68
2022/11/23 04:28:42;;;;;;;17.02;8.85;;;8.80;88.50;;;;;;5070514;28;20395;-68
2022/11/23 04:31:10;;;;;;;19.15;8.73;;;8.80;88.50;;;;;;5053569;28;20045;-68
2022/11/23 04:33:51;;;;;;;18.52;9.55;;;8.80;88.50;;;;;;5053830;28;20049;-69
2022/11/23 04:36:21;;;;;;;21.50;10.18;;;8.80;88.50;;;;;;5052988;28;20045;-68
2022/11/23 04:38:49;;;;;;;19.70;9.80;;;8.80;88.50;;;;;;5051845;28;20060;-68
2022/11/23 04:41:20;;;;;;;15.90;8.02;;;8.80;88.50;;;;;;5053350;28;20260;-68
2022/11/23 04:43:48;;;;;;;17.15;8.30;;;8.80;88.50;;;;;;5070698;28;20073;-68
2022/11/23 04:46:15;;;;;;;20.02;9.40;;;8.80;88.50;;;;;;5040053;28;20096;-68
2022/11/23 04:48:44;;;;;;;21.40;9.52;;;8.80;88.50;;;;;;5070422;28;20145;-68
2022/11/23 04:51:15;;;;;;;19.23;8.40;;;8.80;88.50;;;;;;5053107;28;20049;-68
2022/11/23 04:53:43;;;;;;;15.57;7.93;;;8.80;88.50;;;;;;5049837;28;20375;-68
2022/11/23 04:56:11;;;;;;;18.50;9.27;;;8.80;88.50;;;;;;5033350;28;20045;-68
2022/11/23 04:58:40;;;;;;;16.73;7.47;;;8.80;88.50;;;;;;5055151;28;20052;-68
2022/11/23 05:01:08;;;;;;;18.50;8.55;;;8.80;88.50;;;;;;5053009;28;20085;-68
2022/11/23 05:03:43;;;;;;;16.50;8.57;;;8.80;88.50;;;;;;5052764;28;20045;-68
2022/11/23 05:06:10;;;;;;;17.85;8.82;;;8.80;88.50;;;;;;5053388;28;20256;-68
2022/11/23 05:08:43;;;;;;;18.92;8.32;;;8.80;88.70;;;;;;5051582;28;20049;-68
2022/11/23 05:11:28;;;;;;;19.27;7.78;;;8.80;88.60;;;;;;5041125;28;20046;-68
2022/11/23 05:13:58;;;;;;;17.38;8.13;;;8.80;88.60;;;;;;5052644;28;20052;-68
2022/11/23 05:16:26;;;;;;;15.93;8.13;;;8.80;88.50;;;;;;5053085;28;20053;-68
2022/11/23 05:18:53;;;;;;;16.38;8.50;;;8.80;88.50;;;;;;5050071;28;20250;-68
2022/11/23 05:21:20;;;;;;;17.30;7.65;;;8.80;88.50;;;;;;5045556;28;20080;-68
2022/11/23 05:23:51;;;;;;;17.60;8.65;;;8.80;88.50;;;;;;5069352;28;20147;-68
2022/11/23 05:26:19;;;;;;;18.67;7.45;;;8.80;88.50;;;;;;5053094;28;20106;-68
2022/11/23 05:28:47;;;;;;;18.00;7.93;;;8.80;88.40;;;;;;5040449;28;20061;-68
2022/11/23 05:31:16;;;;;;;16.45;7.47;;;8.80;88.40;;;;;;5032844;28;20249;-68
2022/11/23 05:33:46;;;;;;;16.25;7.50;;;8.80;88.30;;;;;;5060971;28;20056;-68
2022/11/23 05:36:15;;;;;;;15.25;6.70;;;8.80;88.20;;;;;;5052683;28;20082;-68
2022/11/23 05:38:43;;;;;;;14.38;7.35;;;8.80;88.30;;;;;;5069402;28;20053;-68
2022/11/23 05:41:20;;;;;;;15.40;6.27;;;8.80;88.20;;;;;;5069735;28;20598;-68
2022/11/23 05:43:51;;;;;;;13.98;6.57;;;8.80;88.00;;;;;;5041075;28;20279;-68
2022/11/23 05:46:23;;;;;;;15.07;6.70;;;8.80;88.00;;;;;;5048932;28;20049;-68
2022/11/23 05:48:50;;;;;;;12.98;6.53;;;8.70;88.00;;;;;;5060353;28;20063;-68
2022/11/23 05:51:17;;;;;;;16.25;5.78;;;8.70;88.00;;;;;;5069310;28;20798;-68
2022/11/23 05:53:47;;;;;;;14.60;5.93;;;8.70;88.00;;;;;;5052439;28;20061;-68
2022/11/23 05:56:21;;;;;;;12.77;5.72;;;8.70;87.90;;;;;;5052759;28;20244;-68
2022/11/23 05:59:17;;;;;;;11.55;5.78;;;8.60;87.90;;;;;;5065066;28;20052;-68
2022/11/23 06:01:50;;;;;;;13.13;6.05;;;8.60;87.90;;;;;;5048678;28;20045;-68
2022/11/23 06:04:24;;;;;;;12.68;6.10;;;8.60;87.90;;;;;;5032217;28;20049;-68
2022/11/23 06:06:53;;;;;;;12.87;5.13;;;8.60;87.90;;;;;;5035756;28;20135;-68
2022/11/23 06:09:20;;;;;;;10.60;5.38;;;8.60;87.80;;;;;;5052221;28;20395;-68
2022/11/23 06:11:50;;;;;;;12.63;5.43;;;8.60;87.90;;;;;;5051962;28;20044;-68
2022/11/23 06:14:20;;;;;;;13.50;4.95;;;8.60;87.80;;;;;;5052205;28;20045;-68
2022/11/23 06:16:48;;;;;;;11.50;5.25;;;8.60;87.80;;;;;;5050247;28;20139;-68
2022/11/23 06:19:29;;;;;;;10.00;4.90;;;8.60;87.70;;;;;;5031709;28;20135;-68
2022/11/23 06:21:57;;;;;;;12.10;4.68;;;8.60;87.70;;;;;;5034940;28;20335;-68
2022/11/23 06:24:26;;;;;;;11.77;5.45;;;8.60;87.70;;;;;;5052129;28;20041;-68
2022/11/23 06:27:16;;;;;;;9.55;4.93;;;8.60;87.60;;;;;;5068623;28;20053;-68
2022/11/23 06:29:43;;;;;;;11.07;4.75;;;8.60;87.70;;;;;;5051985;28;20056;-68
2022/11/23 06:32:11;;;;;;;10.97;4.50;;;8.60;87.60;;;;;;5068255;28;20092;-68
2022/11/23 06:34:37;;;;;;;10.43;4.40;;;8.60;87.60;;;;;;5051762;28;20359;-68
2022/11/23 06:37:05;;;;;;;11.07;4.68;;;8.60;87.60;;;;;;5062715;28;20045;-68
2022/11/23 06:39:32;;;;;;;12.82;4.15;;;8.60;87.60;;;;;;5048462;28;20049;-68
2022/11/23 06:42:00;;;;;;;9.07;3.97;;;8.60;87.60;;;;;;5035914;28;20045;-68
2022/11/23 06:44:29;;;;;;;8.83;3.73;;;8.60;87.60;;;;;;5069876;28;20760;-68
2022/11/23 06:46:56;;;;;;;10.63;4.10;;;8.60;87.50;;;;;;5051560;28;20272;-68
2022/11/23 06:49:24;;;;;;;9.50;4.10;;;8.50;87.50;;;;;;5068373;28;20049;-68
2022/11/23 06:52:08;;;;;;;10.07;3.92;;;8.50;87.50;;;;;;5079863;28;20132;-68
2022/11/23 06:54:35;;;;;;;11.05;3.78;;;8.50;87.50;;;;;;5074440;28;20080;-68
2022/11/23 06:57:03;;;;;;;11.27;3.90;;;8.50;87.50;;;;;;5076277;28;20099;-68
2022/11/23 06:59:32;;;;;;;10.70;3.00;;;8.50;87.50;;;;;;5056907;28;20798;-68
2022/11/23 07:01:59;;;;;;;10.43;3.50;;;8.50;87.40;;;;;;5060734;28;21564;-68
2022/11/23 07:04:30;;;;;;;9.65;3.58;;;8.50;87.40;;;;;;5078990;28;20080;-68
2022/11/23 07:06:57;;;;;;;9.18;3.17;;;8.50;87.40;;;;;;5077934;28;20052;-68
2022/11/23 07:09:33;;;;;;;8.70;2.80;;;8.50;87.40;;;;;;5079090;28;21073;-68
2022/11/23 07:12:19;;;;;;;9.73;3.67;;;8.40;87.40;;;;;;5075774;28;20772;-68
2022/11/23 07:14:47;;;;;;;9.20;2.88;;;8.40;87.30;;;;;;5071288;28;20060;-69
2022/11/23 07:17:15;;;;;;;11.45;3.15;;;8.40;87.30;;;;;;5069165;28;20056;-69
2022/11/23 07:19:42;;;;;;;10.32;3.30;;;8.40;87.30;;;;;;5053895;28;20049;-69
2022/11/23 07:22:10;;;;;;;9.00;2.83;;;8.40;87.30;;;;;;5069413;28;20080;-69
2022/11/23 07:24:39;;;;;;;10.45;3.13;;;8.40;87.30;;;;;;5054193;28;21292;-69
2022/11/23 07:27:07;;;;;;;11.43;2.97;;;8.40;87.30;;;;;;5053177;28;20158;-68
2022/11/23 07:29:35;;;;;;;8.88;2.85;;;8.40;87.40;;;;;;5051470;28;20044;-69
2022/11/23 07:32:05;;;;;;;11.13;3.30;;;8.40;87.40;;;;;;5070137;28;20091;-68
2022/11/23 07:34:33;;;;;;;9.47;2.87;;;8.40;87.50;;;;;;5056553;28;20080;-69
2022/11/23 07:37:00;;;;;;;7.93;3.03;;;8.40;87.40;;;;;;5070416;28;20274;-69
2022/11/23 07:39:27;;;;;;;7.35;2.75;;;8.40;87.40;;;;;;5053072;28;20041;-69
2022/11/23 07:41:54;;;;;;;8.75;3.33;;;8.40;87.40;;;;;;5053193;28;20052;-69
2022/11/23 07:44:29;;;;;;;11.52;3.50;;;8.40;87.40;;;;;;5054752;28;20103;-69
2022/11/23 07:46:57;;;;;;;8.83;3.47;;;8.40;87.40;;;;;;5055255;28;20051;-69
2022/11/23 07:49:25;;;;;;;10.90;3.45;;;8.40;87.40;;;;;;5076111;28;20270;-68
2022/11/23 07:51:53;;;;;;;8.57;2.88;;;8.40;87.40;;;;;;5070421;28;20129;-69
2022/11/23 07:54:20;;;;;;;9.98;3.10;;;8.40;87.40;;;;;;5053269;28;20051;-69
2022/11/23 07:56:47;;;;;;;11.25;4.80;;;8.40;87.50;;;;;;5069121;28;20528;-69
2022/11/23 07:59:14;;;;;;;9.43;3.97;;;8.40;87.40;;;;;;5069841;28;20051;-68
2022/11/23 08:01:41;;;;;;;9.38;3.05;;;8.40;87.40;;;;;;5072132;28;20346;-69
2022/11/23 08:04:08;;;;;;;7.78;2.97;;;8.40;87.50;;;;;;5074955;28;20045;-69
2022/11/23 08:06:37;;;;;;;10.20;3.03;;;8.40;87.50;;;;;;5078291;28;20075;-69
2022/11/23 08:09:04;;;;;;;11.52;3.63;;;8.40;87.60;;;;;;5062758;28;20040;-69
2022/11/23 08:11:31;;;;;;;7.67;2.87;;;8.40;87.50;;;;;;5080245;28;20106;-69
2022/11/23 08:13:58;;;;;;;9.05;3.53;;;8.40;87.40;;;;;;5069249;28;20290;-69
2022/11/23 08:16:25;;;;;;;12.98;5.82;;;8.40;87.50;;;;;;5070370;28;20132;-69
2022/11/23 08:18:52;;;;;;;10.18;4.45;;;8.40;87.50;;;;;;5070316;28;20045;-69
2022/11/23 08:21:19;;;;;;;9.13;3.40;;;8.40;87.50;;;;;;5064994;28;20505;-69
2022/11/23 08:23:47;;;;;;;11.93;3.60;;;8.40;87.50;;;;;;5074674;28;20049;-69
2022/11/23 08:26:14;;;;;;;9.77;4.90;;;8.50;87.50;;;;;;5069385;28;20875;-70
2022/11/23 08:28:41;;;;;;;13.35;5.25;;;8.50;87.50;;;;;;5069744;28;20191;-69
2022/11/23 08:31:10;;;;;;;13.38;4.63;;;8.50;87.50;;;;;;5071879;28;20107;-69
2022/11/23 08:33:37;;;;;;;9.50;3.30;;;8.50;87.50;;;;;;5093979;28;20047;-69
2022/11/23 08:39:47;;;;;;;9.85;2.90;;;8.50;87.60;;;;;;5053798;28;20720;-69
2022/11/23 08:42:14;;;;;;;10.27;3.20;;;8.50;87.60;;;;;;5049840;28;20049;-68
2022/11/23 08:44:41;;;;;;;9.80;4.55;;;8.50;87.50;;;;;;5056164;28;20164;-69
2022/11/23 08:47:08;;;;;;;12.43;4.45;;;8.50;87.60;;;;;;5067771;28;20053;-68
2022/11/23 08:49:35;;;;;;;8.53;2.93;;;8.60;87.50;;;;;;5050427;28;20491;-68
2022/11/23 08:52:02;;;;;;;10.13;3.30;;;8.60;87.60;;;;;;5069278;28;20806;-69
2022/11/23 08:54:29;;;;;;;8.40;2.92;;;8.60;87.60;;;;;;5048869;28;20057;-69
2022/11/23 08:56:57;;;;;;;10.40;3.50;;;8.60;87.50;;;;;;5048400;28;20527;-69
2022/11/23 08:59:24;;;;;;;9.25;2.50;;;8.60;87.50;;;;;;5048920;28;20134;-69
2022/11/23 09:01:51;;;;;;;11.20;2.83;;;8.60;87.50;;;;;;5066246;28;20515;-69
2022/11/23 09:04:18;;;;;;;10.48;2.90;;;8.60;87.50;;;;;;5050133;28;20888;-69
2022/11/23 09:06:45;;;;;;;10.48;3.20;;;8.60;87.30;;;;;;5056800;28;20537;-68
2022/11/23 09:09:12;;;;;;;14.63;3.60;;;8.60;87.20;;;;;;5058731;28;20052;-69
2022/11/23 09:11:39;;;;;;;16.85;6.18;;;8.60;87.20;;;;;;5058911;28;20049;-69
2022/11/23 09:14:07;;;;;;;13.53;3.97;;;8.60;87.10;;;;;;5053517;28;20045;-68
2022/11/23 09:16:34;;;;;;;11.02;3.67;;;8.60;87.20;;;;;;5056265;28;20774;-69
2022/11/23 09:19:01;;;;;;;9.20;2.90;;;8.60;87.10;;;;;;5058197;28;20491;-69
2022/11/23 09:21:32;;;;;;;11.65;3.60;;;8.70;87.00;;;;;;5056402;28;21150;-68
2022/11/23 09:23:59;;;;;;;13.75;3.70;;;8.70;86.90;;;;;;5050309;28;20049;-69
2022/11/23 09:26:26;;;;;;;11.87;2.60;;;8.70;86.90;;;;;;5049823;28;20108;-68
2022/11/23 09:28:53;;;;;;;12.20;3.03;;;8.70;86.80;;;;;;5065843;28;20340;-68
2022/11/23 09:31:22;;;;;;;7.45;2.30;;;8.80;86.80;;;;;;5048205;28;20053;-68
2022/11/23 09:33:52;;;;;;;12.57;3.17;;;8.80;86.70;;;;;;5056855;28;20763;-69
2022/11/23 09:36:21;;;;;;;12.45;3.22;;;8.80;86.60;;;;;;5063488;28;20814;-69
2022/11/23 09:38:48;;;;;;;10.37;3.40;;;8.80;86.30;;;;;;5051801;28;20498;-68
2022/11/23 09:41:33;;;;;;;10.65;3.47;;;8.80;86.30;;;;;;5050523;28;20719;-69
2022/11/23 09:44:06;;;;;;;11.90;3.03;;;8.90;86.20;;;;;;5046893;28;20128;-69
2022/11/23 09:46:45;;;;;;;13.63;3.28;;;8.90;86.00;;;;;;5078489;28;20092;-69
2022/11/23 09:49:15;;;;;;;15.70;3.13;;;8.90;85.80;;;;;;5049671;28;20143;-69
2022/11/23 09:51:43;;;;;;;12.20;3.30;;;8.90;85.60;;;;;;5047233;28;20132;-69
2022/11/23 09:54:32;;;;;;;12.32;2.80;;;8.90;85.60;;;;;;5048483;28;20305;-69
2022/11/23 09:57:00;;;;;;;11.32;2.65;;;9.00;85.30;;;;;;5072208;28;20058;-69
2022/11/23 09:59:38;;;;;;;11.32;3.08;;;9.00;85.10;;;;;;5048260;28;20461;-69
2022/11/23 10:02:17;;;;;;;10.32;2.92;;;9.00;85.10;;;;;;5047537;28;20128;-70
2022/11/23 10:04:44;;;;;;;12.87;3.60;;;9.00;85.10;;;;;;5048951;28;20132;-69
2022/11/23 10:07:24;;;;;;;10.38;2.47;;;9.00;85.00;;;;;;5061476;28;20253;-69
2022/11/23 10:09:59;;;;;;;9.27;2.58;;;9.00;85.00;;;;;;5047388;28;20120;-70
2022/11/23 10:12:44;;;;;;;12.18;2.60;;;9.00;85.00;;;;;;5054240;28;20891;-69
2022/11/23 10:15:13;;;;;;;10.18;2.40;;;9.00;85.10;;;;;;5052565;28;20073;-69
2022/11/23 10:18:25;;;;;;;9.90;2.30;;;9.00;85.00;;;;;;5081642;28;20666;-69
2022/11/23 10:21:00;;;;;;;8.43;2.25;;;9.00;85.10;;;;;;5053814;28;20269;-69
2022/11/23 10:23:52;;;;;;;10.55;2.35;;;9.00;85.30;;;;;;5039849;28;20530;-69
2022/11/23 10:26:21;;;;;;;11.00;2.83;;;9.00;85.30;;;;;;5051931;28;20064;-69
2022/11/23 10:28:50;;;;;;;14.05;2.88;;;9.00;85.30;;;;;;5048285;28;20046;-69
2022/11/23 10:31:19;;;;;;;9.70;2.50;;;9.00;85.30;;;;;;5081618;28;20052;-69
2022/11/23 10:33:58;;;;;;;9.88;2.60;;;9.00;85.30;;;;;;5048309;28;20260;-69
2022/11/23 10:36:26;;;;;;;8.80;2.30;;;9.00;85.20;;;;;;5047865;28;20055;-69
2022/11/23 10:38:59;;;;;;;11.77;2.20;;;9.00;85.20;;;;;;5050294;28;20049;-69
2022/11/23 10:41:26;;;;;;;6.90;2.00;;;9.00;85.30;;;;;;5050126;28;20051;-69
2022/11/23 10:44:03;;;;;;;8.33;2.00;;;9.00;85.40;;;;;;5052350;28;20049;-69
2022/11/23 10:46:37;;;;;;;7.10;1.52;;;9.00;85.40;;;;;;5060286;28;20894;-69
2022/11/23 10:49:17;;;;;;;10.70;1.92;;;9.00;85.10;;;;;;5063875;28;20483;-69
2022/11/23 10:51:55;;;;;;;9.10;2.22;;;9.00;84.90;;;;;;5084446;28;20915;-69
2022/11/23 10:54:30;;;;;;;13.68;2.00;;;9.00;85.00;;;;;;5084439;28;20057;-69
2022/11/23 10:56:58;;;;;;;8.07;1.83;;;9.00;85.10;;;;;;5051576;28;20057;-69
2022/11/23 10:59:28;;;;;;;12.55;1.92;;;9.00;85.10;;;;;;5049064;28;20255;-69
2022/11/23 11:02:11;;;;;;;9.95;1.98;;;9.00;85.10;;;;;;5052060;28;20052;-69
2022/11/23 11:04:38;;;;;;;9.82;1.40;;;9.00;85.20;;;;;;5050469;28;20044;-69
2022/11/23 11:07:21;;;;;;;9.75;1.90;;;9.10;85.20;;;;;;5051149;28;20136;-69
2022/11/23 11:10:06;;;;;;;10.87;2.43;;;9.10;85.30;;;;;;5053017;28;20539;-69
2022/11/23 11:12:35;;;;;;;8.90;1.98;;;9.20;85.50;;;;;;5053180;28;20268;-69
2022/11/23 11:15:14;;;;;;;8.95;2.10;;;9.20;85.70;;;;;;5051558;28;20144;-69
2022/11/23 11:17:41;;;;;;;12.02;1.80;;;9.20;85.80;;;;;;5051495;28;20053;-69
2022/11/23 11:20:33;;;;;;;12.30;1.90;;;9.30;86.00;;;;;;5068015;28;20539;-69
2022/11/23 11:23:14;;;;;;;10.87;2.20;;;9.40;85.80;;;;;;5036960;28;20499;-69
2022/11/23 11:25:42;;;;;;;8.18;1.95;;;9.50;85.30;;;;;;5048326;28;20273;-69
2022/11/23 11:28:22;;;;;;;10.25;2.42;;;9.50;84.60;;;;;;5055465;28;20053;-69
2022/11/23 11:31:02;;;;;;;9.27;2.28;;;9.60;84.70;;;;;;5052748;28;20164;-69
2022/11/23 11:33:36;;;;;;;11.32;2.22;;;9.60;84.70;;;;;;5062791;28;20159;-70
2022/11/23 11:36:05;;;;;;;9.70;2.03;;;9.70;83.60;;;;;;5052710;28;20073;-69
2022/11/23 11:38:37;;;;;;;9.80;2.03;;;9.80;83.70;;;;;;5050875;28;20379;-69
2022/11/23 11:41:08;;;;;;;7.43;1.77;;;9.80;83.50;;;;;;5050824;28;20107;-69
2022/11/23 11:43:38;;;;;;;10.82;2.15;;;10.00;83.60;;;;;;5052482;28;20128;-69
2022/11/23 11:46:12;;;;;;;10.98;1.67;;;10.00;83.60;;;;;;5052366;28;20052;-69
2022/11/23 11:48:45;;;;;;;8.07;1.40;;;10.00;83.50;;;;;;5050221;28;20057;-70
2022/11/23 11:51:19;;;;;;;9.82;1.50;;;10.10;83.40;;;;;;5067877;28;20327;-69
2022/11/23 11:53:55;;;;;;;9.75;1.80;;;10.20;83.10;;;;;;5052446;28;20128;-70
2022/11/23 11:56:27;;;;;;;8.60;1.77;;;10.30;83.10;;;;;;5067789;28;20069;-70
2022/11/23 11:58:58;;;;;;;9.18;1.80;;;10.30;83.20;;;;;;5050615;28;20067;-69
2022/11/23 12:01:33;;;;;;;9.07;1.40;;;10.40;82.90;;;;;;5050714;28;20057;-70
2022/11/23 12:04:05;;;;;;;11.60;1.80;;;10.50;81.40;;;;;;5051256;28;20781;-70
2022/11/23 12:06:37;;;;;;;6.88;1.65;;;10.60;81.50;;;;;;5050093;28;20614;-70
2022/11/23 12:09:12;;;;;;;8.82;1.35;;;10.60;81.10;;;;;;5049003;28;20050;-69
2022/11/23 12:11:39;;;;;;;9.60;1.40;;;10.70;79.70;;;;;;5049317;28;20064;-70
2022/11/23 12:14:11;;;;;;;8.03;0.90;;;10.80;78.50;;;;;;5050309;28;20052;-70
2022/11/23 12:16:47;;;;;;;6.75;1.48;;;10.90;78.40;;;;;;5049404;28;20307;-70
2022/11/23 12:19:19;;;;;;;10.70;1.48;;;10.90;78.20;;;;;;5058341;28;20049;-70
2022/11/23 12:22:06;;;;;;;7.25;1.25;;;11.00;77.10;;;;;;5055284;28;20185;-70
2022/11/23 12:24:51;;;;;;;6.80;0.77;;;11.00;77.20;;;;;;5085077;28;20103;-70
2022/11/23 12:27:33;;;;;;;5.97;1.20;;;11.00;76.10;;;;;;5079134;28;20522;-70
2022/11/23 12:30:20;;;;;;;7.82;1.15;;;11.10;76.90;;;;;;5073718;28;20270;-70
2022/11/23 12:33:12;;;;;;;8.90;1.40;;;11.10;75.70;;;;;;5058531;28;20169;-70
2022/11/23 12:36:08;;;;;;;7.32;0.90;;;11.10;75.20;;;;;;5050056;28;20159;-69
2022/11/23 12:38:40;;;;;;;8.75;1.30;;;11.10;74.70;;;;;;5053948;28;20053;-69
2022/11/23 12:41:22;;;;;;;8.70;1.17;;;11.10;72.90;;;;;;5047218;28;20077;-69
2022/11/23 12:44:32;;;;;;;8.88;1.50;;;11.10;73.90;;;;;;5050403;28;20264;-70
2022/11/23 12:47:09;;;;;;;6.93;0.90;;;11.10;72.50;;;;;;5077192;28;20057;-70
2022/11/23 12:49:41;;;;;;;9.32;1.35;;;11.10;72.50;;;;;;5068665;28;20050;-70
2022/11/23 12:52:27;;;;;;;5.60;1.00;;;11.10;71.60;;;;;;5049929;28;20059;-70
2022/11/23 12:55:01;;;;;;;6.97;1.20;;;11.10;71.80;;;;;;5066825;28;20045;-69
2022/11/23 12:57:36;;;;;;;10.40;1.38;;;11.10;71.50;;;;;;5048863;28;20295;-70
2022/11/23 13:00:07;;;;;;;11.07;1.00;;;11.10;71.90;;;;;;5065781;28;20303;-70
2022/11/23 13:02:58;;;;;;;9.77;1.23;;;11.10;72.20;;;;;;5060068;28;20049;-70
2022/11/23 13:05:42;;;;;;;7.70;1.23;;;11.10;72.20;;;;;;5061218;28;20053;-69
2022/11/23 13:08:40;;;;;;;6.57;1.00;;;11.10;70.50;;;;;;5083195;28;20515;-70
2022/11/23 13:11:19;;;;;;;9.45;1.05;;;11.10;70.30;;;;;;5032371;28;20292;-70
2022/11/23 13:14:05;;;;;;;8.43;0.80;;;11.10;70.50;;;;;;5047872;28;20173;-70
2022/11/23 13:16:56;;;;;;;7.93;0.90;;;11.10;70.50;;;;;;5048159;28;20045;-70